Observations for PRESTWICK CIV NAVY, United Kingdom (EGPK)

EGPK 280450Z 07007KT 9999 FEW030 12/09 Q1004
EGPK 280350Z 07005KT 9999 FEW030 12/09 Q1004
EGPK 280250Z 08005KT 9999 SCT030 13/10 Q1004
EGPK 280150Z 08005KT 9999 SCT030 13/10 Q1004
EGPK 280050Z 08005KT 040V100 9999 SCT030 13/11 Q1004
EGPK 272350Z 08005KT 050V120 9999 SCT030 13/11 Q1005
EGPK 272320Z 09007KT 9999 BKN034 13/11 Q1005
EGPK 272250Z 09006KT 9999 BKN034 14/11 Q1005
EGPK 272220Z 09006KT 9999 FEW018 BKN032 14/11 Q1005 
EGPK 272150Z 09005KT 9999 FEW018 BKN032 14/11 Q1005 
EGPK 272120Z 10006KT 070V130 9999 FEW018 BKN032 14/11 Q1005 
EGPK 272050Z 09006KT 9999 FEW015 BKN028 14/11 Q1005 
EGPK 272020Z 09006KT 9999 FEW015 SCT028 14/11 Q1004 
EGPK 271950Z 09006KT 9999 -RA FEW010 SCT018 BKN032 14/11 Q1004  
EGPK 271920Z 10008KT 070V130 9999 -RA FEW010 SCT018 BKN032 14/11 Q1004  
EGPK 271850Z 10007KT 9999 7000W -RA FEW010 SCT018 BKN032 14/11 Q1004
EGPK 271820Z 09006KT 9999 -RA SCT018 BKN032 15/11 Q1004 
EGPK 271750Z 12006KT 9999 SCT018 BKN032 15/11 Q1005 
EGPK 271720Z 11007KT 9999 BKN019 15/11 Q1005
EGPK 271650Z 10007KT 9999 FEW018 BKN022 15/11 Q1005 
EGPK 271620Z 10007KT 070V130 9999 FEW018 BKN022 15/11 Q1005 
EGPK 271550Z 10007KT 9999 FEW018 BKN022 14/11 Q1005 
EGPK 271520Z 11007KT 9999 FEW018 BKN022 14/11 Q1005 
EGPK 271450Z 12008KT 9999 FEW015 BKN035 14/11 Q1005 
EGPK 271420Z 12006KT 9999 FEW015 BKN035 14/11 Q1005 
EGPK 271350Z 12006KT 9999 FEW015 BKN035 14/11 Q1005 
EGPK 271320Z 11007KT 9999 FEW015 BKN035 14/11 Q1006 
EGPK 271250Z 10009KT 9999 -RA FEW015 BKN035 13/11 Q1006 
EGPK 271220Z 11008KT 9999 -RA FEW015 BKN035 13/11 Q1006 
EGPK 271150Z 11007KT 7000 -RA SCT012 BKN030 13/11 Q1006 
EGPK 271120Z 11007KT 5000 -RADZ FEW008 SCT014 BKN030 13/11 Q1006
EGPK 271050Z 11008KT 5000 -RA FEW005 SCT010 BKN030 13/11 Q1006  
EGPK 271020Z 11006KT 9000 -RA FEW015 BKN035 13/10 Q1007 
EGPK 270950Z 11007KT 9999 FEW015 BKN035 13/11 Q1007 
EGPK 270920Z 10007KT 9999 FEW015 BKN035 13/11 Q1007 
EGPK 270850Z 10008KT 9999 -RA FEW015 BKN035 12/10 Q1007 
EGPK 270820Z 10007KT 9999 FEW010 SCT030 13/10 Q1007 
EGPK 270750Z 09006KT 9999 FEW010 SCT030 12/10 Q1007 
EGPK 270720Z 10006KT 9999 -RA FEW010 SCT030 12/10 Q1007 
EGPK 270650Z 11006KT 9999 -RA FEW010 SCT030 11/09 Q1008 
EGPK 270620Z 11007KT 9999 -RA FEW010 SCT030 11/09 Q1008 
EGPK 270550Z 11008KT 9999 -RA FEW010 SCT030 11/09 Q1008 
EGPK 270450Z 11006KT 9999 -RA FEW010 SCT030 11/10 Q1008